createdAt,value
2022-08-25T00:00:13.915Z,18.40
2022-08-25T00:02:51.675Z,18.40
2022-08-25T00:05:27.726Z,18.40
2022-08-25T00:07:57.574Z,18.40
2022-08-25T00:10:25.553Z,18.30
2022-08-25T00:12:53.421Z,18.30
2022-08-25T00:15:23.528Z,18.20
2022-08-25T00:17:51.572Z,18.10
2022-08-25T00:20:20.042Z,18.00
2022-08-25T00:22:50.043Z,18.00
2022-08-25T00:25:18.745Z,17.80
2022-08-25T00:27:47.469Z,17.70
2022-08-25T00:30:16.601Z,17.70
2022-08-25T00:32:51.489Z,17.70
2022-08-25T00:35:26.169Z,17.80
2022-08-25T00:37:55.756Z,18.00
2022-08-25T00:40:24.944Z,18.10
2022-08-25T00:42:52.805Z,18.30
2022-08-25T00:45:20.767Z,18.30
2022-08-25T00:47:48.637Z,18.40
2022-08-25T00:50:18.225Z,18.40
2022-08-25T00:52:50.480Z,18.30
2022-08-25T00:55:23.344Z,18.30
2022-08-25T00:57:54.801Z,18.20
2022-08-25T01:00:26.075Z,18.20
2022-08-25T01:02:54.240Z,18.10
2022-08-25T01:05:22.252Z,18.10
2022-08-25T01:07:50.724Z,18.10
2022-08-25T01:10:23.676Z,18.10
2022-08-25T01:12:52.988Z,18.10
2022-08-25T01:15:21.718Z,18.10
2022-08-25T01:17:51.751Z,18.10
2022-08-25T01:20:21.180Z,18.00
2022-08-25T01:22:55.088Z,18.00
2022-08-25T01:25:35.003Z,17.90
2022-08-25T01:28:03.902Z,17.90
2022-08-25T01:30:32.138Z,17.90
2022-08-25T01:33:00.108Z,17.90
2022-08-25T01:35:28.024Z,17.90
2022-08-25T01:37:57.332Z,17.80
2022-08-25T01:40:25.339Z,17.80
2022-08-25T01:43:04.182Z,17.70
2022-08-25T01:45:32.114Z,17.60
2022-08-25T01:48:00.136Z,17.60
2022-08-25T01:50:28.452Z,17.60
2022-08-25T01:53:07.866Z,17.50
2022-08-25T01:55:51.599Z,17.50
2022-08-25T01:58:20.060Z,17.60
2022-08-25T02:00:48.856Z,17.60
2022-08-25T02:03:18.776Z,17.60
2022-08-25T02:05:48.058Z,17.70
2022-08-25T02:08:18.329Z,17.70
2022-08-25T02:10:46.588Z,17.70
2022-08-25T02:13:14.809Z,17.70
2022-08-25T02:15:44.696Z,17.70
2022-08-25T02:18:12.878Z,17.70
2022-08-25T02:20:40.970Z,17.70
2022-08-25T02:23:08.940Z,17.70
2022-08-25T02:25:38.989Z,17.80
2022-08-25T02:28:08.283Z,17.70
2022-08-25T02:30:36.760Z,17.70
2022-08-25T02:33:05.242Z,17.70
2022-08-25T02:35:33.378Z,17.70
2022-08-25T02:38:01.378Z,17.70
2022-08-25T02:40:30.023Z,17.70
2022-08-25T02:43:00.475Z,17.70
2022-08-25T02:45:28.434Z,17.70
2022-08-25T02:47:56.356Z,17.70
2022-08-25T02:50:24.826Z,17.70
2022-08-25T02:52:52.873Z,17.70
2022-08-25T02:55:21.090Z,17.70
2022-08-25T02:57:49.320Z,17.70
2022-08-25T03:00:19.693Z,17.60
2022-08-25T03:02:47.897Z,17.60
2022-08-25T03:05:16.612Z,17.60
2022-08-25T03:07:44.633Z,17.50
2022-08-25T03:10:15.564Z,17.50
2022-08-25T03:12:43.528Z,17.40
2022-08-25T03:15:13.121Z,17.40
2022-08-25T03:17:45.571Z,17.30
2022-08-25T03:20:13.923Z,17.30
2022-08-25T03:22:42.517Z,17.30
2022-08-25T03:25:28.912Z,17.20
2022-08-25T03:27:57.394Z,17.10
2022-08-25T03:30:25.795Z,17.00
2022-08-25T03:32:55.089Z,17.00
2022-08-25T03:35:23.398Z,16.90
2022-08-25T03:37:51.589Z,16.90
2022-08-25T03:40:19.578Z,16.90
2022-08-25T03:42:48.069Z,16.90
2022-08-25T03:45:18.581Z,16.90
2022-08-25T03:47:48.429Z,16.90
2022-08-25T03:50:20.084Z,16.90
2022-08-25T03:52:53.323Z,16.90
2022-08-25T03:55:22.465Z,16.90
2022-08-25T03:57:50.738Z,16.90
2022-08-25T04:00:19.281Z,16.90
2022-08-25T04:02:47.263Z,16.80
2022-08-25T04:05:15.908Z,16.80
2022-08-25T04:07:45.264Z,16.80
2022-08-25T04:10:13.639Z,16.80
2022-08-25T04:12:41.724Z,16.80
2022-08-25T04:15:11.135Z,16.80
2022-08-25T04:17:40.841Z,16.80
2022-08-25T04:20:14.097Z,16.70
2022-08-25T04:22:45.002Z,16.60
2022-08-25T04:25:14.574Z,16.70
2022-08-25T04:27:42.773Z,16.60
2022-08-25T04:30:12.062Z,16.60
2022-08-25T04:32:40.022Z,16.60
2022-08-25T04:35:08.678Z,16.60
2022-08-25T04:37:36.608Z,16.60
2022-08-25T04:40:05.501Z,16.60
2022-08-25T04:42:35.185Z,16.60
2022-08-25T04:45:04.072Z,16.60
2022-08-25T04:47:32.230Z,16.60
2022-08-25T04:50:00.170Z,16.60
2022-08-25T04:52:28.146Z,16.60
2022-08-25T04:54:56.394Z,16.70
2022-08-25T04:57:24.310Z,16.70
2022-08-25T04:59:54.169Z,16.70
2022-08-25T05:02:22.308Z,16.80
2022-08-25T05:04:50.242Z,16.80
2022-08-25T05:07:18.281Z,16.80
2022-08-25T05:09:46.172Z,16.90
2022-08-25T05:12:14.350Z,16.90
2022-08-25T05:14:43.080Z,16.90
2022-08-25T05:17:12.422Z,17.00
2022-08-25T05:19:40.345Z,17.00
2022-08-25T05:22:08.270Z,17.10
2022-08-25T05:24:36.166Z,17.10
2022-08-25T05:27:04.206Z,17.10
2022-08-25T05:29:32.161Z,17.20
2022-08-25T05:32:00.299Z,17.20
2022-08-25T05:34:30.134Z,17.30
2022-08-25T05:37:00.043Z,17.30
2022-08-25T05:39:28.142Z,17.50
2022-08-25T05:41:56.078Z,17.60
2022-08-25T05:44:24.004Z,17.60
2022-08-25T05:46:52.425Z,17.80
2022-08-25T05:49:20.468Z,17.90
2022-08-25T05:51:49.752Z,18.00
2022-08-25T05:54:17.676Z,18.10
2022-08-25T05:56:46.366Z,18.20
2022-08-25T05:59:14.324Z,18.40
2022-08-25T06:01:59.654Z,18.50
2022-08-25T06:04:27.667Z,18.60
2022-08-25T06:06:56.950Z,18.80
2022-08-25T06:09:25.040Z,18.90
2022-08-25T06:11:55.155Z,19.00
2022-08-25T06:14:24.358Z,19.10
2022-08-25T06:16:52.555Z,19.20
2022-08-25T06:19:21.178Z,19.30
2022-08-25T06:21:49.353Z,19.40
2022-08-25T06:24:19.505Z,19.50
2022-08-25T06:26:47.406Z,19.50
2022-08-25T06:29:15.465Z,19.60
2022-08-25T06:31:44.118Z,19.60
2022-08-25T06:34:12.781Z,19.60
2022-08-25T06:36:40.858Z,19.60
2022-08-25T06:39:10.634Z,19.70
2022-08-25T06:41:40.073Z,19.70
2022-08-25T06:44:08.038Z,19.80
2022-08-25T06:46:37.209Z,19.90
2022-08-25T06:49:06.163Z,19.90
2022-08-25T06:51:35.556Z,20.00
2022-08-25T06:54:04.525Z,20.10
2022-08-25T06:56:32.809Z,20.30
2022-08-25T06:59:03.650Z,20.40
2022-08-25T07:01:32.336Z,20.50
2022-08-25T07:04:02.768Z,20.60
2022-08-25T07:06:35.312Z,20.80
2022-08-25T07:09:05.298Z,20.90
2022-08-25T07:11:35.424Z,21.10
2022-08-25T07:14:06.822Z,21.20
2022-08-25T07:16:35.894Z,21.30
2022-08-25T07:19:05.817Z,21.50
2022-08-25T07:21:38.897Z,21.60
2022-08-25T07:24:08.121Z,21.90
2022-08-25T07:26:38.553Z,22.00
2022-08-25T07:29:10.753Z,22.20
2022-08-25T07:31:38.944Z,22.30
2022-08-25T07:34:25.562Z,22.30
2022-08-25T07:36:54.485Z,22.50
2022-08-25T07:39:23.105Z,22.60
2022-08-25T07:41:52.271Z,22.80
2022-08-25T07:44:23.267Z,23.00
2022-08-25T07:46:52.202Z,23.10
2022-08-25T07:49:23.274Z,23.30
2022-08-25T07:52:04.233Z,23.50
2022-08-25T07:54:35.307Z,23.60
2022-08-25T07:57:04.112Z,23.70
2022-08-25T07:59:39.692Z,23.90
2022-08-25T08:02:16.025Z,24.00
2022-08-25T08:04:48.559Z,24.10
2022-08-25T08:07:18.488Z,24.20
2022-08-25T08:09:52.880Z,24.40
2022-08-25T08:12:24.472Z,24.50
2022-08-25T08:14:54.505Z,24.60
2022-08-25T08:17:22.740Z,24.70
2022-08-25T08:19:50.729Z,24.90
2022-08-25T08:22:18.778Z,25.00
2022-08-25T08:24:54.892Z,25.10
2022-08-25T08:27:24.616Z,25.20
2022-08-25T08:29:54.600Z,25.40
2022-08-25T08:32:25.236Z,25.50
2022-08-25T08:34:59.527Z,25.60
2022-08-25T08:37:27.657Z,25.70
2022-08-25T08:39:55.885Z,25.90
2022-08-25T08:42:42.913Z,26.10
2022-08-25T08:45:31.139Z,26.30
2022-08-25T08:48:33.304Z,26.50
2022-08-25T08:51:13.093Z,26.60
2022-08-25T08:53:46.108Z,26.60
2022-08-25T08:56:17.350Z,26.70
2022-08-25T08:58:50.728Z,26.80
2022-08-25T09:01:26.323Z,26.90
2022-08-25T09:04:00.577Z,27.10
2022-08-25T09:06:33.521Z,27.30
2022-08-25T09:09:06.719Z,27.50
2022-08-25T09:11:52.599Z,27.60
2022-08-25T09:14:38.420Z,27.70
2022-08-25T09:17:16.385Z,27.80
2022-08-25T09:20:18.631Z,28.00
2022-08-25T09:22:57.530Z,28.30
2022-08-25T09:25:52.728Z,28.50
2022-08-25T09:28:26.940Z,28.50
2022-08-25T09:31:00.234Z,28.50
2022-08-25T09:33:33.606Z,28.40
2022-08-25T09:36:08.732Z,28.40
2022-08-25T09:38:37.476Z,28.60
2022-08-25T09:41:07.700Z,28.60
2022-08-25T09:43:37.909Z,28.60
2022-08-25T09:46:13.148Z,28.60
2022-08-25T09:48:48.427Z,28.50
2022-08-25T09:51:28.297Z,28.30
2022-08-25T09:53:59.505Z,28.30
2022-08-25T09:56:29.537Z,28.30
2022-08-25T09:59:18.106Z,28.30
2022-08-25T10:01:50.413Z,28.40
2022-08-25T10:04:26.774Z,28.40
2022-08-25T10:06:55.848Z,28.40
2022-08-25T10:09:29.361Z,28.30
2022-08-25T10:12:01.043Z,28.30
2022-08-25T10:14:36.411Z,28.40
2022-08-25T10:17:17.377Z,28.40
2022-08-25T10:19:46.658Z,28.30
2022-08-25T10:22:25.789Z,28.40
2022-08-25T10:24:55.507Z,28.60
2022-08-25T10:27:31.417Z,28.70
2022-08-25T10:30:12.468Z,28.90
2022-08-25T10:33:09.302Z,29.00
2022-08-25T10:35:48.938Z,29.00
2022-08-25T10:38:36.867Z,29.10
2022-08-25T10:41:15.477Z,29.10
2022-08-25T10:43:50.513Z,29.20
2022-08-25T10:46:40.018Z,29.30
2022-08-25T10:49:16.235Z,29.30
2022-08-25T10:51:56.602Z,29.40
2022-08-25T10:54:40.623Z,29.30
2022-08-25T10:57:21.225Z,29.30
2022-08-25T11:00:01.545Z,29.30
2022-08-25T11:03:01.458Z,29.30
2022-08-25T11:05:36.685Z,29.40
2022-08-25T11:08:12.782Z,29.50
2022-08-25T11:10:45.707Z,29.60
2022-08-25T11:13:23.412Z,29.70
2022-08-25T11:16:16.689Z,29.60
2022-08-25T11:18:52.400Z,29.40
2022-08-25T11:21:27.179Z,29.10
2022-08-25T11:24:05.581Z,28.80
2022-08-25T11:26:38.068Z,28.60
2022-08-25T11:29:15.919Z,28.40
2022-08-25T11:31:50.834Z,28.20
2022-08-25T11:34:22.145Z,28.20
2022-08-25T11:36:53.584Z,28.20
2022-08-25T11:39:38.046Z,28.20
2022-08-25T11:42:19.715Z,28.20
2022-08-25T11:44:55.429Z,28.30
2022-08-25T11:47:42.686Z,28.40
2022-08-25T11:50:30.274Z,28.40
2022-08-25T11:53:02.898Z,28.60
2022-08-25T11:55:48.924Z,28.70
2022-08-25T11:58:31.287Z,28.90
2022-08-25T12:01:01.364Z,28.90
2022-08-25T12:03:53.112Z,29.00
2022-08-25T12:06:27.802Z,29.00
2022-08-25T12:09:18.636Z,28.90
2022-08-25T12:11:54.703Z,28.90
2022-08-25T12:14:45.475Z,29.00
2022-08-25T12:17:37.713Z,29.00
2022-08-25T12:20:08.865Z,28.90
2022-08-25T12:22:56.829Z,28.90
2022-08-25T12:25:44.194Z,28.70
2022-08-25T12:28:41.752Z,28.60
2022-08-25T12:31:32.800Z,28.60
2022-08-25T12:34:12.528Z,28.60
2022-08-25T12:36:40.710Z,28.70
2022-08-25T12:39:17.682Z,28.80
2022-08-25T12:41:56.686Z,28.90
2022-08-25T12:44:43.929Z,29.00
2022-08-25T12:47:32.178Z,29.00
2022-08-25T12:50:38.933Z,29.10
2022-08-25T12:53:18.419Z,29.10
2022-08-25T12:55:52.348Z,29.30
2022-08-25T12:58:20.273Z,29.50
2022-08-25T13:01:06.912Z,29.60
2022-08-25T13:04:16.162Z,29.70
2022-08-25T13:07:00.739Z,29.80
2022-08-25T13:10:27.584Z,29.90
2022-08-25T13:13:02.285Z,29.90
2022-08-25T13:15:38.292Z,30.00
2022-08-25T13:18:20.545Z,30.10
2022-08-25T13:20:50.791Z,30.00
2022-08-25T13:23:23.782Z,29.90
2022-08-25T13:25:53.836Z,29.90
2022-08-25T13:28:27.145Z,29.90
2022-08-25T13:31:02.480Z,29.70
2022-08-25T13:33:33.211Z,29.40
2022-08-25T13:36:19.093Z,29.20
2022-08-25T13:38:49.483Z,28.90
2022-08-25T13:41:28.889Z,28.60
2022-08-25T13:44:01.012Z,28.50
2022-08-25T13:46:31.606Z,28.40
2022-08-25T13:49:06.849Z,28.30
2022-08-25T13:51:38.428Z,28.20
2022-08-25T13:54:09.351Z,28.10
2022-08-25T13:56:41.195Z,28.10
2022-08-25T13:59:23.898Z,28.00
2022-08-25T14:01:53.215Z,28.10
2022-08-25T14:04:26.723Z,28.20
2022-08-25T14:07:15.453Z,28.30
2022-08-25T14:09:51.565Z,28.50
2022-08-25T14:12:32.974Z,28.50
2022-08-25T14:15:04.701Z,28.70
2022-08-25T14:17:39.720Z,28.80
2022-08-25T14:20:21.872Z,28.90
2022-08-25T14:22:52.021Z,29.00
2022-08-25T14:25:20.026Z,29.00
2022-08-25T14:28:13.824Z,29.10
2022-08-25T14:30:46.100Z,29.20
2022-08-25T14:33:16.431Z,29.30
2022-08-25T14:35:48.604Z,29.30
2022-08-25T14:38:17.994Z,29.30
2022-08-25T14:40:46.133Z,29.30
2022-08-25T14:43:15.828Z,29.40
2022-08-25T14:45:46.613Z,29.50
2022-08-25T14:48:24.171Z,29.40
2022-08-25T14:50:54.384Z,29.40
2022-08-25T14:53:22.449Z,29.40
2022-08-25T14:55:53.796Z,29.30
2022-08-25T14:58:26.781Z,29.30
2022-08-25T15:00:55.688Z,29.10
2022-08-25T15:03:30.438Z,29.10
2022-08-25T15:06:01.764Z,29.10
2022-08-25T15:08:48.128Z,29.00
2022-08-25T15:11:16.359Z,28.90
2022-08-25T15:13:49.223Z,28.80
2022-08-25T15:16:33.996Z,28.70
2022-08-25T15:19:06.719Z,28.60
2022-08-25T15:21:36.665Z,28.40
2022-08-25T15:24:05.849Z,28.30
2022-08-25T15:26:36.984Z,28.30
2022-08-25T15:29:07.057Z,28.10
2022-08-25T15:31:36.997Z,28.10
2022-08-25T15:34:06.365Z,28.00
2022-08-25T15:36:41.509Z,28.00
2022-08-25T15:39:10.245Z,28.00
2022-08-25T15:41:38.495Z,27.90
2022-08-25T15:44:07.793Z,27.90
2022-08-25T15:46:37.270Z,28.00
2022-08-25T15:49:07.768Z,28.00
2022-08-25T15:51:36.236Z,28.00
2022-08-25T15:54:05.978Z,28.00
2022-08-25T15:56:33.945Z,27.90
2022-08-25T15:59:05.564Z,27.90
2022-08-25T16:01:37.128Z,27.90
2022-08-25T16:04:05.196Z,27.80
2022-08-25T16:06:34.070Z,27.80
2022-08-25T16:09:02.343Z,27.80
2022-08-25T16:11:34.847Z,27.80
2022-08-25T16:14:03.533Z,27.80
2022-08-25T16:16:33.036Z,27.80
2022-08-25T16:19:01.709Z,27.70
2022-08-25T16:21:32.953Z,27.60
2022-08-25T16:24:07.538Z,27.60
2022-08-25T16:26:48.158Z,27.60
2022-08-25T16:29:16.670Z,27.60
2022-08-25T16:31:44.727Z,27.60
2022-08-25T16:34:12.817Z,27.60
2022-08-25T16:36:40.729Z,27.60
2022-08-25T16:39:10.000Z,27.60
2022-08-25T16:41:39.652Z,27.60
2022-08-25T16:44:11.209Z,27.60
2022-08-25T16:46:41.819Z,27.60
2022-08-25T16:49:13.719Z,27.70
2022-08-25T16:51:44.281Z,27.70
2022-08-25T16:54:30.417Z,27.70
2022-08-25T16:56:59.686Z,27.60
2022-08-25T16:59:27.909Z,27.60
2022-08-25T17:01:56.053Z,27.60
2022-08-25T17:04:27.594Z,27.50
2022-08-25T17:07:00.296Z,27.50
2022-08-25T17:09:30.020Z,27.50
2022-08-25T17:11:59.377Z,27.40
2022-08-25T17:14:27.477Z,27.40
2022-08-25T17:16:55.507Z,27.40
2022-08-25T17:19:24.968Z,27.30
2022-08-25T17:21:54.392Z,27.20
2022-08-25T17:24:29.641Z,27.20
2022-08-25T17:27:02.040Z,27.10
2022-08-25T17:29:30.173Z,27.10
2022-08-25T17:31:58.382Z,27.00
2022-08-25T17:34:27.969Z,27.00
2022-08-25T17:36:56.431Z,26.90
2022-08-25T17:39:25.219Z,26.80
2022-08-25T17:41:53.181Z,26.80
2022-08-25T17:44:22.502Z,26.70
2022-08-25T17:46:50.744Z,26.70
2022-08-25T17:49:19.815Z,26.60
2022-08-25T17:51:47.747Z,26.50
2022-08-25T17:54:15.861Z,26.50
2022-08-25T17:56:44.046Z,26.40
2022-08-25T17:59:13.933Z,26.30
2022-08-25T18:01:43.318Z,26.30
2022-08-25T18:04:15.705Z,26.20
2022-08-25T18:06:46.668Z,26.10
2022-08-25T18:09:14.702Z,26.00
2022-08-25T18:11:43.085Z,25.90
2022-08-25T18:14:12.009Z,25.90
2022-08-25T18:16:40.754Z,25.80
2022-08-25T18:19:12.354Z,25.70
2022-08-25T18:21:43.403Z,25.50
2022-08-25T18:24:13.322Z,25.40
2022-08-25T18:26:41.660Z,25.30
2022-08-25T18:29:12.096Z,25.20
2022-08-25T18:31:41.775Z,25.00
2022-08-25T18:34:13.534Z,24.90
2022-08-25T18:36:41.604Z,24.70
2022-08-25T18:39:28.029Z,24.50
2022-08-25T18:42:00.997Z,24.40
2022-08-25T18:44:29.445Z,24.30
2022-08-25T18:46:58.163Z,24.20
2022-08-25T18:49:28.715Z,24.10
2022-08-25T18:51:56.954Z,24.10
2022-08-25T18:54:24.856Z,24.00
2022-08-25T18:56:54.621Z,24.00
2022-08-25T18:59:24.092Z,23.90
2022-08-25T19:01:53.492Z,23.90
2022-08-25T19:04:28.358Z,23.80
2022-08-25T19:07:01.460Z,23.70
2022-08-25T19:09:29.764Z,23.70
2022-08-25T19:11:58.802Z,23.70
2022-08-25T19:14:27.341Z,23.60
2022-08-25T19:16:57.809Z,23.60
2022-08-25T19:19:25.817Z,23.50
2022-08-25T19:21:53.844Z,23.40
2022-08-25T19:24:23.193Z,23.40
2022-08-25T19:26:54.465Z,23.30
2022-08-25T19:29:23.113Z,23.30
2022-08-25T19:31:51.862Z,23.20
2022-08-25T19:34:28.289Z,23.20
2022-08-25T19:37:00.775Z,23.10
2022-08-25T19:39:30.250Z,23.10
2022-08-25T19:41:59.291Z,23.10
2022-08-25T19:44:28.020Z,23.00
2022-08-25T19:46:56.265Z,23.00
2022-08-25T19:49:27.608Z,22.90
2022-08-25T19:52:00.078Z,22.80
2022-08-25T19:54:32.766Z,22.60
2022-08-25T19:57:01.342Z,22.50
2022-08-25T19:59:40.549Z,22.50
2022-08-25T20:02:12.737Z,22.40
2022-08-25T20:04:43.867Z,22.30
2022-08-25T20:07:19.913Z,22.20
2022-08-25T20:09:49.801Z,22.20
2022-08-25T20:12:20.123Z,22.10
2022-08-25T20:14:48.498Z,22.10
2022-08-25T20:17:23.615Z,22.00
2022-08-25T20:19:55.460Z,21.90
2022-08-25T20:22:26.149Z,21.80
2022-08-25T20:24:58.282Z,21.70
2022-08-25T20:27:29.833Z,21.70
2022-08-25T20:29:59.559Z,21.60
2022-08-25T20:32:31.329Z,21.50
2022-08-25T20:34:59.378Z,21.50
2022-08-25T20:37:27.482Z,21.50
2022-08-25T20:39:56.868Z,21.40
2022-08-25T20:42:25.148Z,21.40
2022-08-25T20:44:54.592Z,21.50
2022-08-25T20:47:22.606Z,21.40
2022-08-25T20:49:50.582Z,21.30
2022-08-25T20:52:20.000Z,21.40
2022-08-25T20:54:50.521Z,21.40
2022-08-25T20:57:24.495Z,21.50
2022-08-25T20:59:54.857Z,21.40
2022-08-25T21:02:23.125Z,21.40
2022-08-25T21:04:51.681Z,21.30
2022-08-25T21:07:21.430Z,21.30
2022-08-25T21:09:52.119Z,21.20
2022-08-25T21:12:22.355Z,21.10
2022-08-25T21:14:50.675Z,21.10
2022-08-25T21:17:19.517Z,21.00
2022-08-25T21:22:21.151Z,20.90
2022-08-25T21:24:49.490Z,20.90
2022-08-25T21:27:17.410Z,20.90
2022-08-25T21:29:54.497Z,20.90
2022-08-25T21:32:24.289Z,20.90
2022-08-25T21:34:53.867Z,20.80
2022-08-25T21:37:22.321Z,20.80
2022-08-25T21:39:50.578Z,20.80
2022-08-25T21:42:18.784Z,20.80
2022-08-25T21:44:48.060Z,20.70
2022-08-25T21:47:16.004Z,20.70
2022-08-25T21:49:49.806Z,20.70
2022-08-25T21:52:17.941Z,20.60
2022-08-25T21:54:45.899Z,20.60
2022-08-25T21:57:13.864Z,20.50
2022-08-25T21:59:43.509Z,20.50
2022-08-25T22:02:19.256Z,20.40
2022-08-25T22:04:52.328Z,20.40
2022-08-25T22:07:22.101Z,20.40
2022-08-25T22:09:53.159Z,20.30
2022-08-25T22:12:21.128Z,20.30
2022-08-25T22:14:49.163Z,20.30
2022-08-25T22:17:21.187Z,20.30
2022-08-25T22:19:53.680Z,20.20
2022-08-25T22:22:22.505Z,20.30
2022-08-25T22:24:53.004Z,20.20
2022-08-25T22:27:21.851Z,20.20
2022-08-25T22:29:52.153Z,20.10
2022-08-25T22:32:22.030Z,20.10
2022-08-25T22:34:49.971Z,20.10
2022-08-25T22:37:18.220Z,20.00
2022-08-25T22:39:46.925Z,20.10
2022-08-25T22:42:15.291Z,20.00
2022-08-25T22:44:43.391Z,20.00
2022-08-25T22:47:12.281Z,20.00
2022-08-25T22:49:41.574Z,20.00
2022-08-25T22:52:11.602Z,19.90
2022-08-25T22:54:41.882Z,19.90
2022-08-25T22:57:10.107Z,19.90
2022-08-25T22:59:38.333Z,19.90
2022-08-25T23:02:06.604Z,19.80
2022-08-25T23:04:34.575Z,19.80
2022-08-25T23:07:03.986Z,19.70
2022-08-25T23:09:32.497Z,19.70
2022-08-25T23:12:00.464Z,19.70
2022-08-25T23:14:33.965Z,19.60
2022-08-25T23:17:01.889Z,19.60
2022-08-25T23:19:35.645Z,19.60
2022-08-25T23:22:10.621Z,19.60
2022-08-25T23:24:40.136Z,19.60
2022-08-25T23:27:12.661Z,19.60
2022-08-25T23:29:43.135Z,19.70
2022-08-25T23:32:11.379Z,19.60
2022-08-25T23:34:43.751Z,19.70
2022-08-25T23:37:18.699Z,19.70
2022-08-25T23:39:47.916Z,19.70
2022-08-25T23:42:19.065Z,19.60
2022-08-25T23:44:47.098Z,19.60
2022-08-25T23:47:15.015Z,19.60
2022-08-25T23:49:42.965Z,19.60
2022-08-25T23:52:11.132Z,19.60
2022-08-25T23:54:40.386Z,19.50
2022-08-25T23:57:08.915Z,19.50
2022-08-25T23:59:37.419Z,19.50
